Pays
Station

 

Conditions  météo  pour  St. Petersburg/Clearwater, St. Petersburg/Clearwater International Airport  -  Etats-Unis    Etats-Unis

  
26 °C
    
 
 

METAR pour St. Petersburg/Clearwater, St. Petersburg/Clearwater International Airport :

KPIE 202253Z 23008KT 10SM SCT060 BKN085 26/19 A3026 RMK AO2 SLP247 T02610194 $

 

Voici le bulletin pour St. Petersburg/Clearwater, St. Petersburg/Clearwater International Airport - Etats-Unis.
 
Le bulletin a été fait il y a 30 minutes, à 22:53 UTC .
Le vent soufflait à la vitesse de 4.1 mètres par seconde de Sud-ouest (230°).
 
La température était de 26 °C, avec un point de rosée à 19 °C.
La température ressentie était de 27 °C.
 
La pression atmosphérique était de 1025 hPa.
L'humidité relative était de 65.4%.
 
Il y avait 3 à 4/8ème de nébulosité à une hauteur de 1829 mètres et 5 à 7/8ème de nébulosité à une hauteur de 2591 mètres.
 
La visibilité globale était de 16.1 kilomètres.
 

 
 
 

Pays :   A   B   C   D   E   F   G   H   I   J   K   L   M   N   O   P   Q   R   S   T   U   V   W   Y   Z

 

Partenaires :  Info Météo avec Met'info
Météo Marine avec MeteoMarine.net
Infos Site  |  Infos Légales  |  Crédits  |  Confidentialité
Contactez-nous  |  Ajouter aux favoris
© 2013-2018 METAR - Tous droits réservés